sensor_id;sensor_type;location;lat;lon;timestamp;pressure;altitude;pressure_sealevel;temperature;humidity
39891;BME280;25564;53.312;9.790;2023-02-28T00:00:38;102455.25;;;3.10;85.28
39891;BME280;25564;53.312;9.790;2023-02-28T00:03:09;102466.66;;;3.10;85.84
39891;BME280;25564;53.312;9.790;2023-02-28T00:05:41;102455.19;;;3.08;85.58
39891;BME280;25564;53.312;9.790;2023-02-28T00:08:12;102450.91;;;3.10;85.82
39891;BME280;25564;53.312;9.790;2023-02-28T00:10:44;102453.41;;;3.07;85.39
39891;BME280;25564;53.312;9.790;2023-02-28T00:13:15;102447.91;;;3.01;85.68
39891;BME280;25564;53.312;9.790;2023-02-28T00:15:47;102443.25;;;2.94;85.24
39891;BME280;25564;53.312;9.790;2023-02-28T00:18:18;102459.22;;;3.00;84.65
39891;BME280;25564;53.312;9.790;2023-02-28T00:20:50;102410.66;;;2.67;84.88
39891;BME280;25564;53.312;9.790;2023-02-28T00:23:21;102460.50;;;2.89;85.81
39891;BME280;25564;53.312;9.790;2023-02-28T00:25:53;102461.03;;;2.80;85.37
39891;BME280;25564;53.312;9.790;2023-02-28T00:28:24;102455.34;;;2.70;85.26
39891;BME280;25564;53.312;9.790;2023-02-28T00:30:56;102457.63;;;2.62;85.11
39891;BME280;25564;53.312;9.790;2023-02-28T00:33:28;102441.94;;;2.43;85.76
39891;BME280;25564;53.312;9.790;2023-02-28T00:36:05;102456.91;;;2.45;85.87
39891;BME280;25564;53.312;9.790;2023-02-28T00:38:38;102452.97;;;2.36;85.46
39891;BME280;25564;53.312;9.790;2023-02-28T00:41:09;102443.34;;;2.15;85.96
39891;BME280;25564;53.312;9.790;2023-02-28T00:43:40;102459.75;;;2.11;85.86
39891;BME280;25564;53.312;9.790;2023-02-28T00:46:12;102457.38;;;1.96;85.96
39891;BME280;25564;53.312;9.790;2023-02-28T00:48:43;102466.31;;;1.82;86.21
39891;BME280;25564;53.312;9.790;2023-02-28T00:51:15;102460.53;;;1.70;86.22
39891;BME280;25564;53.312;9.790;2023-02-28T00:53:46;102459.06;;;1.57;86.27
39891;BME280;25564;53.312;9.790;2023-02-28T00:56:17;102462.72;;;1.43;86.28
39891;BME280;25564;53.312;9.790;2023-02-28T00:58:48;102445.78;;;1.17;86.26
39891;BME280;25564;53.312;9.790;2023-02-28T01:01:20;102465.75;;;1.15;87.03
39891;BME280;25564;53.312;9.790;2023-02-28T01:03:51;102468.63;;;1.02;86.83
39891;BME280;25564;53.312;9.790;2023-02-28T01:06:23;102470.69;;;0.91;87.09
39891;BME280;25564;53.312;9.790;2023-02-28T01:08:54;102462.09;;;0.76;86.60
39891;BME280;25564;53.312;9.790;2023-02-28T01:11:25;102468.78;;;0.71;86.17
39891;BME280;25564;53.312;9.790;2023-02-28T01:13:58;102464.75;;;0.60;86.86
39891;BME280;25564;53.312;9.790;2023-02-28T01:16:30;102463.38;;;0.50;86.78
39891;BME280;25564;53.312;9.790;2023-02-28T01:19:01;102462.59;;;0.35;87.22
39891;BME280;25564;53.312;9.790;2023-02-28T01:21:32;102475.31;;;0.29;87.72
39891;BME280;25564;53.312;9.790;2023-02-28T01:24:06;102473.84;;;0.18;87.63
39891;BME280;25564;53.312;9.790;2023-02-28T01:26:38;102475.97;;;0.09;87.83
39891;BME280;25564;53.312;9.790;2023-02-28T01:29:10;102470.34;;;0.01;88.15
39891;BME280;25564;53.312;9.790;2023-02-28T01:31:41;102474.31;;;-0.07;87.45
39891;BME280;25564;53.312;9.790;2023-02-28T01:34:12;102468.44;;;-0.19;88.38
39891;BME280;25564;53.312;9.790;2023-02-28T01:36:44;102477.16;;;-0.19;87.89
39891;BME280;25564;53.312;9.790;2023-02-28T01:39:15;102476.72;;;-0.26;87.69
39891;BME280;25564;53.312;9.790;2023-02-28T01:41:46;102472.91;;;-0.33;88.19
39891;BME280;25564;53.312;9.790;2023-02-28T01:44:57;102469.13;;;-0.38;88.39
39891;BME280;25564;53.312;9.790;2023-02-28T01:47:34;102470.41;;;-0.46;88.79
39891;BME280;25564;53.312;9.790;2023-02-28T01:50:10;102469.09;;;-0.54;87.92
39891;BME280;25564;53.312;9.790;2023-02-28T01:52:43;102458.06;;;-0.65;88.41
39891;BME280;25564;53.312;9.790;2023-02-28T01:55:17;102454.69;;;-0.79;87.73
39891;BME280;25564;53.312;9.790;2023-02-28T01:57:52;102473.03;;;-0.77;88.25
39891;BME280;25564;53.312;9.790;2023-02-28T02:00:26;102440.53;;;-0.99;88.44
39891;BME280;25564;53.312;9.790;2023-02-28T02:03:03;102467.13;;;-0.89;88.49
39891;BME280;25564;53.312;9.790;2023-02-28T02:05:37;102466.03;;;-0.93;88.59
39891;BME280;25564;53.312;9.790;2023-02-28T02:08:12;102445.91;;;-1.12;88.13
39891;BME280;25564;53.312;9.790;2023-02-28T02:11:02;102466.19;;;-1.06;89.40
39891;BME280;25564;53.312;9.790;2023-02-28T02:25:01;102463.06;;;-1.30;89.45
39891;BME280;25564;53.312;9.790;2023-02-28T02:30:46;102452.09;;;-1.39;89.50
39891;BME280;25564;53.312;9.790;2023-02-28T02:33:28;102458.03;;;-1.42;88.89
39891;BME280;25564;53.312;9.790;2023-02-28T02:39:22;102460.00;;;-1.52;89.17
39891;BME280;25564;53.312;9.790;2023-02-28T02:42:00;102460.53;;;-1.58;89.24
39891;BME280;25564;53.312;9.790;2023-02-28T02:47:10;102433.75;;;-1.85;89.52
39891;BME280;25564;53.312;9.790;2023-02-28T02:49:47;102454.06;;;-1.79;89.53
39891;BME280;25564;53.312;9.790;2023-02-28T02:52:25;102444.69;;;-1.90;89.19
39891;BME280;25564;53.312;9.790;2023-02-28T02:55:00;102466.78;;;-1.84;90.08
39891;BME280;25564;53.312;9.790;2023-02-28T02:57:53;102463.91;;;-1.88;89.10
39891;BME280;25564;53.312;9.790;2023-02-28T03:00:30;102467.94;;;-1.93;90.23
39891;BME280;25564;53.312;9.790;2023-02-28T03:03:04;102466.13;;;-1.94;89.84
39891;BME280;25564;53.312;9.790;2023-02-28T03:05:46;102425.66;;;-2.19;89.72
39891;BME280;25564;53.312;9.790;2023-02-28T03:08:17;102451.22;;;-2.12;90.08
39891;BME280;25564;53.312;9.790;2023-02-28T03:10:51;102431.03;;;-2.16;90.01
39891;BME280;25564;53.312;9.790;2023-02-28T03:16:35;102463.88;;;-2.03;90.44
39891;BME280;25564;53.312;9.790;2023-02-28T03:19:22;102460.03;;;-2.10;89.79
39891;BME280;25564;53.312;9.790;2023-02-28T03:22:25;102462.44;;;-2.13;90.62
39891;BME280;25564;53.312;9.790;2023-02-28T03:25:11;102460.63;;;-2.14;90.68
39891;BME280;25564;53.312;9.790;2023-02-28T03:28:00;102458.56;;;-2.19;90.44
39891;BME280;25564;53.312;9.790;2023-02-28T03:30:52;102456.66;;;-2.22;90.38
39891;BME280;25564;53.312;9.790;2023-02-28T03:34:06;102465.88;;;-2.27;89.82
39891;BME280;25564;53.312;9.790;2023-02-28T03:36:43;102441.44;;;-2.44;90.50
39891;BME280;25564;53.312;9.790;2023-02-28T03:39:34;102442.75;;;-2.50;90.76
39891;BME280;25564;53.312;9.790;2023-02-28T03:42:13;102431.88;;;-2.58;90.16
39891;BME280;25564;53.312;9.790;2023-02-28T03:44:55;102457.34;;;-2.52;90.42
39891;BME280;25564;53.312;9.790;2023-02-28T03:47:32;102468.63;;;-2.52;90.26
39891;BME280;25564;53.312;9.790;2023-02-28T03:50:19;102474.84;;;-2.50;90.36
39891;BME280;25564;53.312;9.790;2023-02-28T03:53:16;102486.84;;;-2.52;90.67
39891;BME280;25564;53.312;9.790;2023-02-28T03:55:53;102488.44;;;-2.54;91.20
39891;BME280;25564;53.312;9.790;2023-02-28T03:58:57;102466.16;;;-2.64;90.75
39891;BME280;25564;53.312;9.790;2023-02-28T04:01:43;102481.84;;;-2.49;90.85
39891;BME280;25564;53.312;9.790;2023-02-28T04:04:16;102477.53;;;-2.48;90.90
39891;BME280;25564;53.312;9.790;2023-02-28T04:06:53;102488.31;;;-2.42;91.55
39891;BME280;25564;53.312;9.790;2023-02-28T04:09:31;102437.38;;;-2.67;91.39
39891;BME280;25564;53.312;9.790;2023-02-28T04:12:03;102485.81;;;-2.41;90.63
39891;BME280;25564;53.312;9.790;2023-02-28T04:14:34;102485.63;;;-2.44;91.36
39891;BME280;25564;53.312;9.790;2023-02-28T04:17:06;102481.31;;;-2.43;90.50
39891;BME280;25564;53.312;9.790;2023-02-28T04:19:37;102484.53;;;-2.47;91.05
39891;BME280;25564;53.312;9.790;2023-02-28T04:22:09;102476.53;;;-2.50;90.82
39891;BME280;25564;53.312;9.790;2023-02-28T04:24:40;102483.03;;;-2.57;91.55
39891;BME280;25564;53.312;9.790;2023-02-28T04:27:12;102482.66;;;-2.63;90.87
39891;BME280;25564;53.312;9.790;2023-02-28T04:29:43;102479.75;;;-2.68;90.29
39891;BME280;25564;53.312;9.790;2023-02-28T04:32:15;102492.66;;;-2.69;91.12
39891;BME280;25564;53.312;9.790;2023-02-28T04:34:47;102482.06;;;-2.72;90.72
39891;BME280;25564;53.312;9.790;2023-02-28T04:37:18;102474.56;;;-2.81;90.81
39891;BME280;25564;53.312;9.790;2023-02-28T04:39:49;102481.56;;;-2.80;90.66
39891;BME280;25564;53.312;9.790;2023-02-28T04:42:21;102485.56;;;-2.85;90.76
39891;BME280;25564;53.312;9.790;2023-02-28T04:44:52;102487.97;;;-2.88;91.28
39891;BME280;25564;53.312;9.790;2023-02-28T04:47:23;102485.16;;;-2.91;91.04
39891;BME280;25564;53.312;9.790;2023-02-28T04:49:55;102479.78;;;-2.94;91.22
39891;BME280;25564;53.312;9.790;2023-02-28T04:52:27;102479.56;;;-2.97;91.27
39891;BME280;25564;53.312;9.790;2023-02-28T04:54:58;102474.97;;;-3.01;91.11
39891;BME280;25564;53.312;9.790;2023-02-28T04:57:30;102467.31;;;-3.13;90.87
39891;BME280;25564;53.312;9.790;2023-02-28T05:00:01;102481.66;;;-3.05;91.13
39891;BME280;25564;53.312;9.790;2023-02-28T05:02:35;102479.88;;;-3.06;91.28
39891;BME280;25564;53.312;9.790;2023-02-28T05:05:07;102480.66;;;-3.07;91.28
39891;BME280;25564;53.312;9.790;2023-02-28T05:07:38;102483.97;;;-3.09;91.03
39891;BME280;25564;53.312;9.790;2023-02-28T05:10:10;102484.59;;;-3.13;91.07
39891;BME280;25564;53.312;9.790;2023-02-28T05:12:42;102477.00;;;-3.23;90.99
39891;BME280;25564;53.312;9.790;2023-02-28T05:15:15;102497.38;;;-3.16;91.17
39891;BME280;25564;53.312;9.790;2023-02-28T05:17:47;102491.97;;;-3.19;91.45
39891;BME280;25564;53.312;9.790;2023-02-28T05:20:18;102495.16;;;-3.23;91.19
39891;BME280;25564;53.312;9.790;2023-02-28T05:22:49;102459.69;;;-3.49;90.87
39891;BME280;25564;53.312;9.790;2023-02-28T05:25:21;102497.94;;;-3.34;91.04
39891;BME280;25564;53.312;9.790;2023-02-28T05:27:53;102502.81;;;-3.38;91.16
39891;BME280;25564;53.312;9.790;2023-02-28T05:30:25;102484.75;;;-3.50;91.08
39891;BME280;25564;53.312;9.790;2023-02-28T05:32:56;102506.81;;;-3.43;91.22
39891;BME280;25564;53.312;9.790;2023-02-28T05:35:27;102498.59;;;-3.49;91.16
39891;BME280;25564;53.312;9.790;2023-02-28T05:37:59;102459.84;;;-3.73;90.96
39891;BME280;25564;53.312;9.790;2023-02-28T05:40:30;102500.09;;;-3.53;91.27
39891;BME280;25564;53.312;9.790;2023-02-28T05:43:01;102507.09;;;-3.52;91.51
39891;BME280;25564;53.312;9.790;2023-02-28T05:45:32;102506.88;;;-3.55;91.35
39891;BME280;25564;53.312;9.790;2023-02-28T05:48:04;102512.75;;;-3.57;91.21
39891;BME280;25564;53.312;9.790;2023-02-28T05:50:36;102508.25;;;-3.60;90.60
39891;BME280;25564;53.312;9.790;2023-02-28T05:53:07;102509.25;;;-3.58;91.38
39891;BME280;25564;53.312;9.790;2023-02-28T05:55:38;102512.88;;;-3.56;91.52
39891;BME280;25564;53.312;9.790;2023-02-28T05:58:10;102511.06;;;-3.57;91.42
39891;BME280;25564;53.312;9.790;2023-02-28T06:00:41;102509.84;;;-3.62;91.27
39891;BME280;25564;53.312;9.790;2023-02-28T06:03:12;102505.84;;;-3.70;91.18
39891;BME280;25564;53.312;9.790;2023-02-28T06:05:44;102509.44;;;-3.68;91.24
39891;BME280;25564;53.312;9.790;2023-02-28T06:08:16;102492.81;;;-3.83;91.04
39891;BME280;25564;53.312;9.790;2023-02-28T06:10:47;102516.22;;;-3.70;91.47
39891;BME280;25564;53.312;9.790;2023-02-28T06:13:18;102513.28;;;-3.75;91.73
39891;BME280;25564;53.312;9.790;2023-02-28T06:15:50;102518.47;;;-3.75;91.43
39891;BME280;25564;53.312;9.790;2023-02-28T06:18:21;102515.78;;;-3.76;91.39
39891;BME280;25564;53.312;9.790;2023-02-28T06:20:53;102529.19;;;-3.70;91.48
39891;BME280;25564;53.312;9.790;2023-02-28T06:23:25;102532.78;;;-3.68;91.51
39891;BME280;25564;53.312;9.790;2023-02-28T06:25:57;102536.38;;;-3.66;91.63
39891;BME280;25564;53.312;9.790;2023-02-28T06:28:29;102527.00;;;-3.64;91.52
39891;BME280;25564;53.312;9.790;2023-02-28T06:31:06;102526.22;;;-3.63;91.38
39891;BME280;25564;53.312;9.790;2023-02-28T06:33:38;102528.69;;;-3.65;91.51
39891;BME280;25564;53.312;9.790;2023-02-28T06:36:12;102522.50;;;-3.67;91.42
39891;BME280;25564;53.312;9.790;2023-02-28T06:38:44;102533.00;;;-3.65;91.33
39891;BME280;25564;53.312;9.790;2023-02-28T06:41:15;102539.28;;;-3.62;91.53
39891;BME280;25564;53.312;9.790;2023-02-28T06:43:46;102532.81;;;-3.55;91.90
39891;BME280;25564;53.312;9.790;2023-02-28T06:46:18;102533.25;;;-3.49;91.74
39891;BME280;25564;53.312;9.790;2023-02-28T06:48:49;102538.16;;;-3.40;91.43
39891;BME280;25564;53.312;9.790;2023-02-28T06:51:20;102541.47;;;-3.30;92.03
39891;BME280;25564;53.312;9.790;2023-02-28T06:53:53;102516.91;;;-3.35;92.32
39891;BME280;25564;53.312;9.790;2023-02-28T06:56:24;102543.78;;;-3.08;91.98
39891;BME280;25564;53.312;9.790;2023-02-28T06:58:55;102480.38;;;-3.38;91.41
39891;BME280;25564;53.312;9.790;2023-02-28T07:01:27;102534.13;;;-2.84;91.64
39891;BME280;25564;53.312;9.790;2023-02-28T07:03:59;102548.91;;;-2.70;92.31
39891;BME280;25564;53.312;9.790;2023-02-28T07:06:31;102539.50;;;-2.54;92.35
39891;BME280;25564;53.312;9.790;2023-02-28T07:09:02;102525.72;;;-2.53;92.68
39891;BME280;25564;53.312;9.790;2023-02-28T07:11:35;102543.41;;;-2.35;92.25
39891;BME280;25564;53.312;9.790;2023-02-28T07:14:07;102532.78;;;-2.24;92.68
39891;BME280;25564;53.312;9.790;2023-02-28T07:16:38;102558.78;;;-1.97;92.46
39891;BME280;25564;53.312;9.790;2023-02-28T07:19:09;102542.84;;;-1.88;92.65
39891;BME280;25564;53.312;9.790;2023-02-28T07:21:41;102509.81;;;-1.89;92.01
39891;BME280;25564;53.312;9.790;2023-02-28T07:24:12;102548.50;;;-1.52;93.07
39891;BME280;25564;53.312;9.790;2023-02-28T07:26:46;102548.72;;;-1.35;92.35
39891;BME280;25564;53.312;9.790;2023-02-28T07:29:18;102558.25;;;-1.20;93.36
39891;BME280;25564;53.312;9.790;2023-02-28T07:31:49;102553.16;;;-1.04;93.03
39891;BME280;25564;53.312;9.790;2023-02-28T07:34:24;102528.03;;;-1.02;92.87
39891;BME280;25564;53.312;9.790;2023-02-28T07:36:56;102548.16;;;-0.70;92.41
39891;BME280;25564;53.312;9.790;2023-02-28T07:39:28;102552.72;;;-0.51;92.63
39891;BME280;25564;53.312;9.790;2023-02-28T07:41:59;102526.00;;;-0.47;93.24
39891;BME280;25564;53.312;9.790;2023-02-28T07:44:31;102546.53;;;-0.22;92.75
39891;BME280;25564;53.312;9.790;2023-02-28T07:47:02;102556.44;;;-0.01;93.52
39891;BME280;25564;53.312;9.790;2023-02-28T07:49:35;102553.00;;;0.17;93.08
39891;BME280;25564;53.312;9.790;2023-02-28T07:52:07;102535.22;;;0.26;93.03
39891;BME280;25564;53.312;9.790;2023-02-28T07:54:38;102552.19;;;0.50;92.69
39891;BME280;25564;53.312;9.790;2023-02-28T07:57:12;102554.03;;;0.69;93.02
39891;BME280;25564;53.312;9.790;2023-02-28T07:59:43;102557.53;;;0.86;92.53
39891;BME280;25564;53.312;9.790;2023-02-28T08:02:17;102551.44;;;1.03;92.79
39891;BME280;25564;53.312;9.790;2023-02-28T08:04:49;102537.81;;;1.10;92.51
39891;BME280;25564;53.312;9.790;2023-02-28T08:07:20;102555.69;;;1.37;92.37
39891;BME280;25564;53.312;9.790;2023-02-28T08:09:52;102548.31;;;1.46;92.79
39891;BME280;25564;53.312;9.790;2023-02-28T08:12:23;102545.69;;;1.63;92.66
39891;BME280;25564;53.312;9.790;2023-02-28T08:14:54;102544.91;;;1.84;92.30
39891;BME280;25564;53.312;9.790;2023-02-28T08:17:26;102544.06;;;2.03;92.78
39891;BME280;25564;53.312;9.790;2023-02-28T08:19:57;102565.56;;;2.34;92.33
39891;BME280;25564;53.312;9.790;2023-02-28T08:22:28;102563.00;;;2.55;92.74
39891;BME280;25564;53.312;9.790;2023-02-28T08:24:59;102564.16;;;2.81;92.53
39891;BME280;25564;53.312;9.790;2023-02-28T08:27:31;102564.25;;;3.03;91.77
39891;BME280;25564;53.312;9.790;2023-02-28T08:30:03;102570.25;;;3.21;92.31
39891;BME280;25564;53.312;9.790;2023-02-28T08:32:34;102554.38;;;3.18;91.91
39891;BME280;25564;53.312;9.790;2023-02-28T08:35:06;102576.28;;;3.40;90.78
39891;BME280;25564;53.312;9.790;2023-02-28T08:37:40;102576.66;;;3.49;91.05
39891;BME280;25564;53.312;9.790;2023-02-28T08:40:11;102577.97;;;3.60;91.19
39891;BME280;25564;53.312;9.790;2023-02-28T08:42:49;102560.69;;;3.65;90.74
39891;BME280;25564;53.312;9.790;2023-02-28T08:45:20;102548.00;;;3.76;90.59
39891;BME280;25564;53.312;9.790;2023-02-28T08:47:54;102576.28;;;4.05;90.28
39891;BME280;25564;53.312;9.790;2023-02-28T08:50:25;102562.69;;;4.17;89.60
39891;BME280;25564;53.312;9.790;2023-02-28T08:52:57;102532.06;;;4.17;89.69
39891;BME280;25564;53.312;9.790;2023-02-28T08:55:28;102541.66;;;4.39;88.97
39891;BME280;25564;53.312;9.790;2023-02-28T08:57:59;102559.22;;;4.64;89.89
39891;BME280;25564;53.312;9.790;2023-02-28T09:00:32;102567.50;;;4.75;89.39
39891;BME280;25564;53.312;9.790;2023-02-28T09:03:03;102561.44;;;4.77;89.44
39891;BME280;25564;53.312;9.790;2023-02-28T09:05:34;102540.47;;;4.79;88.08
39891;BME280;25564;53.312;9.790;2023-02-28T09:08:06;102574.41;;;4.97;88.20
39891;BME280;25564;53.312;9.790;2023-02-28T09:10:37;102572.16;;;5.07;87.48
39891;BME280;25564;53.312;9.790;2023-02-28T09:13:08;102552.00;;;5.08;87.46
39891;BME280;25564;53.312;9.790;2023-02-28T09:15:40;102572.75;;;5.25;87.19
39891;BME280;25564;53.312;9.790;2023-02-28T09:18:11;102576.63;;;5.37;86.92
39891;BME280;25564;53.312;9.790;2023-02-28T09:20:43;102569.03;;;5.46;86.64
39891;BME280;25564;53.312;9.790;2023-02-28T09:23:14;102566.97;;;5.63;85.62
39891;BME280;25564;53.312;9.790;2023-02-28T09:25:51;102572.72;;;5.78;85.33
39891;BME280;25564;53.312;9.790;2023-02-28T09:28:23;102578.84;;;6.04;85.02
39891;BME280;25564;53.312;9.790;2023-02-28T09:30:54;102559.31;;;6.27;85.28
39891;BME280;25564;53.312;9.790;2023-02-28T09:33:26;102552.66;;;6.40;84.46
39891;BME280;25564;53.312;9.790;2023-02-28T09:35:59;102570.75;;;6.57;84.39
39891;BME280;25564;53.312;9.790;2023-02-28T09:38:31;102567.63;;;6.71;83.73
39891;BME280;25564;53.312;9.790;2023-02-28T09:41:11;102571.63;;;6.88;82.96
39891;BME280;25564;53.312;9.790;2023-02-28T09:43:47;102565.66;;;6.95;82.91
39891;BME280;25564;53.312;9.790;2023-02-28T09:46:38;102560.53;;;7.01;82.22
39891;BME280;25564;53.312;9.790;2023-02-28T09:49:15;102584.13;;;7.30;82.56
39891;BME280;25564;53.312;9.790;2023-02-28T09:51:50;102585.19;;;7.36;82.12
39891;BME280;25564;53.312;9.790;2023-02-28T09:54:24;102587.41;;;7.54;82.00
39891;BME280;25564;53.312;9.790;2023-02-28T09:57:19;102582.47;;;7.68;80.84
39891;BME280;25564;53.312;9.790;2023-02-28T10:00:03;102582.75;;;7.80;81.43
39891;BME280;25564;53.312;9.790;2023-02-28T10:05:52;102569.22;;;7.66;81.04
39891;BME280;25564;53.312;9.790;2023-02-28T10:08:33;102583.66;;;7.80;80.48
39891;BME280;25564;53.312;9.790;2023-02-28T10:11:10;102573.16;;;7.83;80.44
39891;BME280;25564;53.312;9.790;2023-02-28T10:13:51;102589.00;;;7.83;79.19
39891;BME280;25564;53.312;9.790;2023-02-28T10:16:34;102572.72;;;7.65;79.15
39891;BME280;25564;53.312;9.790;2023-02-28T10:19:44;102584.38;;;7.75;77.84
39891;BME280;25564;53.312;9.790;2023-02-28T10:22:32;102574.50;;;7.66;78.41
39891;BME280;25564;53.312;9.790;2023-02-28T10:25:15;102587.16;;;7.79;78.72
39891;BME280;25564;53.312;9.790;2023-02-28T10:27:47;102585.50;;;7.84;79.80
39891;BME280;25564;53.312;9.790;2023-02-28T10:30:20;102584.94;;;7.98;79.03
39891;BME280;25564;53.312;9.790;2023-02-28T10:32:52;102595.75;;;8.08;78.51
39891;BME280;25564;53.312;9.790;2023-02-28T10:35:26;102581.56;;;8.05;77.55
39891;BME280;25564;53.312;9.790;2023-02-28T10:37:59;102585.22;;;8.10;77.60
39891;BME280;25564;53.312;9.790;2023-02-28T10:40:33;102582.84;;;8.22;77.27
39891;BME280;25564;53.312;9.790;2023-02-28T10:45:57;102577.06;;;8.40;76.13
39891;BME280;25564;53.312;9.790;2023-02-28T10:48:36;102569.38;;;8.52;75.94
39891;BME280;25564;53.312;9.790;2023-02-28T10:51:10;102562.31;;;8.51;76.09
39891;BME280;25564;53.312;9.790;2023-02-28T10:56:30;102575.19;;;8.34;75.73
39891;BME280;25564;53.312;9.790;2023-02-28T10:59:27;102566.19;;;8.26;74.67
39891;BME280;25564;53.312;9.790;2023-02-28T11:01:59;102577.63;;;8.25;75.20
39891;BME280;25564;53.312;9.790;2023-02-28T11:07:21;102566.53;;;8.02;73.29
39891;BME280;25564;53.312;9.790;2023-02-28T11:09:57;102572.44;;;7.91;73.42
39891;BME280;25564;53.312;9.790;2023-02-28T11:12:34;102572.31;;;7.86;73.89
39891;BME280;25564;53.312;9.790;2023-02-28T11:17:57;102572.41;;;7.89;72.76
39891;BME280;25564;53.312;9.790;2023-02-28T11:20:31;102576.06;;;7.96;73.24
39891;BME280;25564;53.312;9.790;2023-02-28T11:23:04;102568.00;;;7.90;72.47
39891;BME280;25564;53.312;9.790;2023-02-28T11:25:37;102572.50;;;7.94;72.44
39891;BME280;25564;53.312;9.790;2023-02-28T11:28:34;102565.50;;;7.96;71.75
39891;BME280;25564;53.312;9.790;2023-02-28T11:33:52;102544.66;;;8.09;71.83
39891;BME280;25564;53.312;9.790;2023-02-28T11:36:29;102533.22;;;8.10;71.47
39891;BME280;25564;53.312;9.790;2023-02-28T11:39:08;102544.06;;;8.23;71.75
39891;BME280;25564;53.312;9.790;2023-02-28T11:41:54;102556.84;;;8.43;72.15
39891;BME280;25564;53.312;9.790;2023-02-28T11:44:55;102539.59;;;8.20;70.49
39891;BME280;25564;53.312;9.790;2023-02-28T11:50:32;102552.63;;;8.11;71.33
39891;BME280;25564;53.312;9.790;2023-02-28T11:56:23;102548.16;;;8.08;70.69
39891;BME280;25564;53.312;9.790;2023-02-28T12:02:24;102541.94;;;8.06;70.21
39891;BME280;25564;53.312;9.790;2023-02-28T12:05:12;102536.69;;;8.08;70.29
39891;BME280;25564;53.312;9.790;2023-02-28T12:07:58;102532.47;;;8.16;70.38
39891;BME280;25564;53.312;9.790;2023-02-28T12:10:42;102495.41;;;8.14;70.46
39891;BME280;25564;53.312;9.790;2023-02-28T12:13:38;102523.38;;;8.45;70.21
39891;BME280;25564;53.312;9.790;2023-02-28T12:19:20;102522.69;;;8.54;69.34
39891;BME280;25564;53.312;9.790;2023-02-28T12:22:20;102515.69;;;8.58;70.12
39891;BME280;25564;53.312;9.790;2023-02-28T12:28:09;102510.84;;;8.80;69.71
39891;BME280;25564;53.312;9.790;2023-02-28T12:31:00;102503.69;;;8.76;68.80
39891;BME280;25564;53.312;9.790;2023-02-28T12:33:35;102505.44;;;8.74;68.93
39891;BME280;25564;53.312;9.790;2023-02-28T12:36:10;102481.81;;;8.85;69.00
39891;BME280;25564;53.312;9.790;2023-02-28T12:38:45;102495.38;;;9.05;68.46
39891;BME280;25564;53.312;9.790;2023-02-28T12:41:24;102449.94;;;8.79;68.00
39891;BME280;25564;53.312;9.790;2023-02-28T12:44:06;102496.22;;;9.02;68.11
39891;BME280;25564;53.312;9.790;2023-02-28T12:46:42;102489.16;;;9.01;68.27
39891;BME280;25564;53.312;9.790;2023-02-28T12:49:19;102464.34;;;8.96;68.13
39891;BME280;25564;53.312;9.790;2023-02-28T12:51:52;102452.22;;;9.10;67.89
39891;BME280;25564;53.312;9.790;2023-02-28T12:54:39;102473.00;;;9.40;67.48
39891;BME280;25564;53.312;9.790;2023-02-28T12:57:38;102473.97;;;9.47;67.08
39891;BME280;25564;53.312;9.790;2023-02-28T13:00:18;102466.88;;;9.46;67.61
39891;BME280;25564;53.312;9.790;2023-02-28T13:03:01;102469.50;;;9.43;67.18
39891;BME280;25564;53.312;9.790;2023-02-28T13:11:39;102447.22;;;9.29;66.39
39891;BME280;25564;53.312;9.790;2023-02-28T13:14:44;102448.00;;;9.22;66.07
39891;BME280;25564;53.312;9.790;2023-02-28T13:17:20;102444.41;;;9.18;65.20
39891;BME280;25564;53.312;9.790;2023-02-28T13:27:54;102425.94;;;9.23;65.36
39891;BME280;25564;53.312;9.790;2023-02-28T13:33:33;102432.06;;;9.18;64.89
39891;BME280;25564;53.312;9.790;2023-02-28T13:36:21;102426.91;;;9.28;65.17
39891;BME280;25564;53.312;9.790;2023-02-28T13:38:54;102427.91;;;9.39;65.09
39891;BME280;25564;53.312;9.790;2023-02-28T13:49:28;102430.66;;;9.45;65.08
39891;BME280;25564;53.312;9.790;2023-02-28T13:58:09;102432.56;;;9.55;64.69
39891;BME280;25564;53.312;9.790;2023-02-28T14:01:08;102425.63;;;9.63;64.56
39891;BME280;25564;53.312;9.790;2023-02-28T14:04:22;102431.78;;;9.62;64.96
39891;BME280;25564;53.312;9.790;2023-02-28T14:07:04;102424.75;;;9.64;65.38
39891;BME280;25564;53.312;9.790;2023-02-28T14:09:41;102421.44;;;9.82;65.20
39891;BME280;25564;53.312;9.790;2023-02-28T14:18:06;102427.38;;;9.63;64.67
39891;BME280;25564;53.312;9.790;2023-02-28T14:20:45;102434.50;;;9.67;64.65
39891;BME280;25564;53.312;9.790;2023-02-28T14:23:42;102438.81;;;9.60;63.53
39891;BME280;25564;53.312;9.790;2023-02-28T14:32:10;102429.06;;;9.56;64.05
39891;BME280;25564;53.312;9.790;2023-02-28T14:35:01;102426.44;;;9.59;63.53
39891;BME280;25564;53.312;9.790;2023-02-28T14:37:37;102433.66;;;9.69;63.75
39891;BME280;25564;53.312;9.790;2023-02-28T14:40:12;102441.78;;;9.81;64.37
39891;BME280;25564;53.312;9.790;2023-02-28T14:42:56;102397.31;;;9.61;64.65
39891;BME280;25564;53.312;9.790;2023-02-28T14:45:35;102446.09;;;9.73;64.12
39891;BME280;25564;53.312;9.790;2023-02-28T14:48:09;102426.34;;;9.53;64.25
39891;BME280;25564;53.312;9.790;2023-02-28T14:50:49;102442.28;;;9.55;63.80
39891;BME280;25564;53.312;9.790;2023-02-28T14:53:22;102423.53;;;9.41;63.97
39891;BME280;25564;53.312;9.790;2023-02-28T14:55:54;102438.41;;;9.30;63.11
39891;BME280;25564;53.312;9.790;2023-02-28T14:58:30;102431.13;;;9.16;63.32
39891;BME280;25564;53.312;9.790;2023-02-28T15:01:03;102438.06;;;9.08;63.35
39891;BME280;25564;53.312;9.790;2023-02-28T15:03:37;102439.59;;;8.94;63.25
39891;BME280;25564;53.312;9.790;2023-02-28T15:06:16;102441.97;;;8.79;63.06
39891;BME280;25564;53.312;9.790;2023-02-28T15:09:06;102451.38;;;8.62;62.50
39891;BME280;25564;53.312;9.790;2023-02-28T15:11:39;102435.06;;;8.39;63.71
39891;BME280;25564;53.312;9.790;2023-02-28T15:14:17;102449.31;;;8.45;63.83
39891;BME280;25564;53.312;9.790;2023-02-28T15:17:00;102451.84;;;8.39;63.75
39891;BME280;25564;53.312;9.790;2023-02-28T15:19:36;102446.44;;;8.33;63.75